sensor_id;sensor_type;location;lat;lon;timestamp;P1;durP1;ratioP1;P2;durP2;ratioP2
68192;SDS011;55012;47.562;18.414;2023-02-01T00:01:17;9.85;;;4.25;;
68192;SDS011;55012;47.562;18.414;2023-02-01T00:03:42;9.70;;;4.07;;
68192;SDS011;55012;47.562;18.414;2023-02-01T00:06:08;8.13;;;3.42;;
68192;SDS011;55012;47.562;18.414;2023-02-01T00:08:33;9.02;;;3.25;;
68192;SDS011;55012;47.562;18.414;2023-02-01T00:11:00;9.20;;;3.65;;
68192;SDS011;55012;47.562;18.414;2023-02-01T00:13:28;7.68;;;3.70;;
68192;SDS011;55012;47.562;18.414;2023-02-01T00:16:07;10.15;;;3.97;;
68192;SDS011;55012;47.562;18.414;2023-02-01T00:18:34;8.55;;;3.33;;
68192;SDS011;55012;47.562;18.414;2023-02-01T00:21:00;6.60;;;2.53;;
68192;SDS011;55012;47.562;18.414;2023-02-01T00:23:26;7.05;;;2.00;;
68192;SDS011;55012;47.562;18.414;2023-02-01T00:25:52;4.22;;;1.63;;
68192;SDS011;55012;47.562;18.414;2023-02-01T00:28:17;5.13;;;1.80;;
68192;SDS011;55012;47.562;18.414;2023-02-01T00:30:43;4.15;;;1.90;;
68192;SDS011;55012;47.562;18.414;2023-02-01T00:33:08;6.47;;;2.30;;
68192;SDS011;55012;47.562;18.414;2023-02-01T00:35:34;8.18;;;2.60;;
68192;SDS011;55012;47.562;18.414;2023-02-01T00:38:00;8.52;;;2.88;;
68192;SDS011;55012;47.562;18.414;2023-02-01T00:40:27;6.40;;;2.60;;
68192;SDS011;55012;47.562;18.414;2023-02-01T00:42:52;7.15;;;2.50;;
68192;SDS011;55012;47.562;18.414;2023-02-01T00:45:18;7.30;;;2.35;;
68192;SDS011;55012;47.562;18.414;2023-02-01T00:47:44;5.47;;;1.90;;
68192;SDS011;55012;47.562;18.414;2023-02-01T00:50:10;4.75;;;1.75;;
68192;SDS011;55012;47.562;18.414;2023-02-01T00:52:35;4.03;;;1.85;;
68192;SDS011;55012;47.562;18.414;2023-02-01T00:55:01;5.55;;;1.92;;
68192;SDS011;55012;47.562;18.414;2023-02-01T00:57:27;4.78;;;1.80;;
68192;SDS011;55012;47.562;18.414;2023-02-01T00:59:52;3.28;;;1.98;;
68192;SDS011;55012;47.562;18.414;2023-02-01T01:02:17;3.85;;;1.80;;
68192;SDS011;55012;47.562;18.414;2023-02-01T01:04:43;3.25;;;1.90;;
68192;SDS011;55012;47.562;18.414;2023-02-01T01:07:08;3.17;;;1.77;;
68192;SDS011;55012;47.562;18.414;2023-02-01T01:09:34;6.43;;;2.03;;
68192;SDS011;55012;47.562;18.414;2023-02-01T01:12:00;5.28;;;2.08;;
68192;SDS011;55012;47.562;18.414;2023-02-01T01:14:28;5.53;;;2.17;;
68192;SDS011;55012;47.562;18.414;2023-02-01T01:16:53;4.68;;;2.20;;
68192;SDS011;55012;47.562;18.414;2023-02-01T01:19:19;4.95;;;2.08;;
68192;SDS011;55012;47.562;18.414;2023-02-01T01:21:44;4.15;;;2.20;;
68192;SDS011;55012;47.562;18.414;2023-02-01T01:24:10;8.18;;;2.13;;
68192;SDS011;55012;47.562;18.414;2023-02-01T01:26:35;5.18;;;2.25;;
68192;SDS011;55012;47.562;18.414;2023-02-01T01:29:01;3.75;;;1.70;;
68192;SDS011;55012;47.562;18.414;2023-02-01T01:31:28;5.57;;;2.20;;
68192;SDS011;55012;47.562;18.414;2023-02-01T01:33:55;6.15;;;2.67;;
68192;SDS011;55012;47.562;18.414;2023-02-01T01:36:22;8.90;;;2.70;;
68192;SDS011;55012;47.562;18.414;2023-02-01T01:38:48;6.22;;;2.47;;
68192;SDS011;55012;47.562;18.414;2023-02-01T01:41:15;3.63;;;2.00;;
68192;SDS011;55012;47.562;18.414;2023-02-01T01:43:51;5.07;;;2.42;;
68192;SDS011;55012;47.562;18.414;2023-02-01T01:46:18;3.97;;;2.22;;
68192;SDS011;55012;47.562;18.414;2023-02-01T01:48:45;5.38;;;2.83;;
68192;SDS011;55012;47.562;18.414;2023-02-01T01:51:22;6.35;;;2.83;;
68192;SDS011;55012;47.562;18.414;2023-02-01T01:53:58;6.03;;;2.83;;
68192;SDS011;55012;47.562;18.414;2023-02-01T01:56:28;9.95;;;3.60;;
68192;SDS011;55012;47.562;18.414;2023-02-01T01:58:57;6.30;;;3.13;;
68192;SDS011;55012;47.562;18.414;2023-02-01T02:01:23;6.22;;;3.25;;
68192;SDS011;55012;47.562;18.414;2023-02-01T02:03:49;7.45;;;4.00;;
68192;SDS011;55012;47.562;18.414;2023-02-01T02:06:27;6.18;;;3.40;;
68192;SDS011;55012;47.562;18.414;2023-02-01T02:08:54;7.80;;;3.60;;
68192;SDS011;55012;47.562;18.414;2023-02-01T02:11:20;7.75;;;4.00;;
68192;SDS011;55012;47.562;18.414;2023-02-01T02:13:46;6.93;;;3.40;;
68192;SDS011;55012;47.562;18.414;2023-02-01T02:16:24;7.18;;;3.33;;
68192;SDS011;55012;47.562;18.414;2023-02-01T02:29:53;4.45;;;2.72;;
68192;SDS011;55012;47.562;18.414;2023-02-01T02:35:37;5.03;;;2.72;;
68192;SDS011;55012;47.562;18.414;2023-02-01T02:38:29;4.70;;;2.75;;
68192;SDS011;55012;47.562;18.414;2023-02-01T02:43:49;3.97;;;2.30;;
68192;SDS011;55012;47.562;18.414;2023-02-01T02:46:43;5.22;;;2.50;;
68192;SDS011;55012;47.562;18.414;2023-02-01T02:49:36;5.32;;;2.60;;
68192;SDS011;55012;47.562;18.414;2023-02-01T02:52:32;4.93;;;2.63;;
68192;SDS011;55012;47.562;18.414;2023-02-01T02:55:18;4.65;;;2.28;;
68192;SDS011;55012;47.562;18.414;2023-02-01T02:57:45;5.43;;;2.70;;
68192;SDS011;55012;47.562;18.414;2023-02-01T03:00:31;4.95;;;2.22;;
68192;SDS011;55012;47.562;18.414;2023-02-01T03:03:17;3.95;;;2.20;;
68192;SDS011;55012;47.562;18.414;2023-02-01T03:06:01;5.72;;;2.45;;
68192;SDS011;55012;47.562;18.414;2023-02-01T03:08:28;4.30;;;2.53;;
68192;SDS011;55012;47.562;18.414;2023-02-01T03:11:00;5.38;;;1.95;;
68192;SDS011;55012;47.562;18.414;2023-02-01T03:13:46;4.32;;;2.50;;
68192;SDS011;55012;47.562;18.414;2023-02-01T03:21:36;5.55;;;2.35;;
68192;SDS011;55012;47.562;18.414;2023-02-01T03:24:11;4.93;;;2.47;;
68192;SDS011;55012;47.562;18.414;2023-02-01T03:26:46;3.95;;;2.42;;
68192;SDS011;55012;47.562;18.414;2023-02-01T03:29:19;8.30;;;2.60;;
68192;SDS011;55012;47.562;18.414;2023-02-01T03:31:49;4.68;;;2.42;;
68192;SDS011;55012;47.562;18.414;2023-02-01T03:34:15;5.80;;;2.50;;
68192;SDS011;55012;47.562;18.414;2023-02-01T03:36:43;6.20;;;3.10;;
68192;SDS011;55012;47.562;18.414;2023-02-01T03:41:50;5.82;;;2.63;;
68192;SDS011;55012;47.562;18.414;2023-02-01T03:46:50;5.78;;;2.85;;
68192;SDS011;55012;47.562;18.414;2023-02-01T03:49:22;4.35;;;2.80;;
68192;SDS011;55012;47.562;18.414;2023-02-01T03:51:53;4.13;;;2.47;;
68192;SDS011;55012;47.562;18.414;2023-02-01T03:54:20;6.38;;;2.65;;
68192;SDS011;55012;47.562;18.414;2023-02-01T03:56:46;5.50;;;3.20;;
68192;SDS011;55012;47.562;18.414;2023-02-01T03:59:13;5.43;;;2.75;;
68192;SDS011;55012;47.562;18.414;2023-02-01T04:01:39;6.65;;;2.75;;
68192;SDS011;55012;47.562;18.414;2023-02-01T04:04:05;6.43;;;3.25;;
68192;SDS011;55012;47.562;18.414;2023-02-01T04:06:31;6.53;;;3.05;;
68192;SDS011;55012;47.562;18.414;2023-02-01T04:08:57;4.68;;;2.67;;
68192;SDS011;55012;47.562;18.414;2023-02-01T04:11:23;6.78;;;3.60;;
68192;SDS011;55012;47.562;18.414;2023-02-01T04:13:48;8.50;;;4.30;;
68192;SDS011;55012;47.562;18.414;2023-02-01T04:16:14;8.35;;;3.22;;
68192;SDS011;55012;47.562;18.414;2023-02-01T04:18:39;7.05;;;3.40;;
68192;SDS011;55012;47.562;18.414;2023-02-01T04:21:05;5.50;;;2.88;;
68192;SDS011;55012;47.562;18.414;2023-02-01T04:23:30;7.25;;;3.53;;
68192;SDS011;55012;47.562;18.414;2023-02-01T04:26:00;5.75;;;3.58;;
68192;SDS011;55012;47.562;18.414;2023-02-01T04:28:27;6.82;;;3.45;;
68192;SDS011;55012;47.562;18.414;2023-02-01T04:30:52;6.53;;;3.42;;
68192;SDS011;55012;47.562;18.414;2023-02-01T04:33:18;10.07;;;4.60;;
68192;SDS011;55012;47.562;18.414;2023-02-01T04:35:43;11.93;;;6.15;;
68192;SDS011;55012;47.562;18.414;2023-02-01T04:38:09;12.90;;;5.70;;
68192;SDS011;55012;47.562;18.414;2023-02-01T04:40:34;8.98;;;4.22;;
68192;SDS011;55012;47.562;18.414;2023-02-01T04:43:02;6.32;;;3.30;;
68192;SDS011;55012;47.562;18.414;2023-02-01T04:45:29;6.53;;;3.60;;
68192;SDS011;55012;47.562;18.414;2023-02-01T04:47:54;8.02;;;3.85;;
68192;SDS011;55012;47.562;18.414;2023-02-01T04:50:20;8.63;;;4.15;;
68192;SDS011;55012;47.562;18.414;2023-02-01T04:52:45;7.82;;;4.32;;
68192;SDS011;55012;47.562;18.414;2023-02-01T04:55:11;9.40;;;4.63;;
68192;SDS011;55012;47.562;18.414;2023-02-01T04:57:38;10.82;;;5.00;;
68192;SDS011;55012;47.562;18.414;2023-02-01T05:00:05;13.63;;;5.50;;
68192;SDS011;55012;47.562;18.414;2023-02-01T05:02:33;9.07;;;4.60;;
68192;SDS011;55012;47.562;18.414;2023-02-01T05:04:58;13.38;;;5.97;;
68192;SDS011;55012;47.562;18.414;2023-02-01T05:07:24;11.88;;;5.43;;
68192;SDS011;55012;47.562;18.414;2023-02-01T05:09:49;12.40;;;5.40;;
68192;SDS011;55012;47.562;18.414;2023-02-01T05:12:15;12.88;;;5.68;;
68192;SDS011;55012;47.562;18.414;2023-02-01T05:14:59;11.65;;;5.38;;
68192;SDS011;55012;47.562;18.414;2023-02-01T05:17:24;10.13;;;4.20;;
68192;SDS011;55012;47.562;18.414;2023-02-01T05:19:50;8.18;;;3.80;;
68192;SDS011;55012;47.562;18.414;2023-02-01T05:22:15;8.45;;;3.80;;
68192;SDS011;55012;47.562;18.414;2023-02-01T05:24:40;7.18;;;3.65;;
68192;SDS011;55012;47.562;18.414;2023-02-01T05:27:06;7.22;;;3.67;;
68192;SDS011;55012;47.562;18.414;2023-02-01T05:29:31;6.65;;;3.80;;
68192;SDS011;55012;47.562;18.414;2023-02-01T05:31:57;10.73;;;4.80;;
68192;SDS011;55012;47.562;18.414;2023-02-01T05:34:22;7.70;;;4.00;;
68192;SDS011;55012;47.562;18.414;2023-02-01T05:36:48;9.52;;;4.40;;
68192;SDS011;55012;47.562;18.414;2023-02-01T05:39:13;8.25;;;4.50;;
68192;SDS011;55012;47.562;18.414;2023-02-01T05:41:39;8.15;;;4.00;;
68192;SDS011;55012;47.562;18.414;2023-02-01T05:44:04;7.93;;;4.00;;
68192;SDS011;55012;47.562;18.414;2023-02-01T05:46:32;7.45;;;4.03;;
68192;SDS011;55012;47.562;18.414;2023-02-01T05:48:58;7.25;;;3.92;;
68192;SDS011;55012;47.562;18.414;2023-02-01T05:51:24;7.40;;;3.90;;
68192;SDS011;55012;47.562;18.414;2023-02-01T05:53:49;7.40;;;3.95;;
68192;SDS011;55012;47.562;18.414;2023-02-01T05:56:15;7.60;;;4.13;;
68192;SDS011;55012;47.562;18.414;2023-02-01T05:58:40;10.40;;;4.70;;
68192;SDS011;55012;47.562;18.414;2023-02-01T06:01:06;8.32;;;4.10;;
68192;SDS011;55012;47.562;18.414;2023-02-01T06:03:31;8.15;;;4.43;;
68192;SDS011;55012;47.562;18.414;2023-02-01T06:05:57;7.70;;;4.35;;
68192;SDS011;55012;47.562;18.414;2023-02-01T06:08:22;9.57;;;4.60;;
68192;SDS011;55012;47.562;18.414;2023-02-01T06:10:50;8.90;;;4.65;;
68192;SDS011;55012;47.562;18.414;2023-02-01T06:13:16;7.95;;;4.00;;
68192;SDS011;55012;47.562;18.414;2023-02-01T06:15:42;8.65;;;4.57;;
68192;SDS011;55012;47.562;18.414;2023-02-01T06:18:09;8.48;;;4.95;;
68192;SDS011;55012;47.562;18.414;2023-02-01T06:20:34;9.40;;;4.85;;
68192;SDS011;55012;47.562;18.414;2023-02-01T06:23:00;10.63;;;5.38;;
68192;SDS011;55012;47.562;18.414;2023-02-01T06:25:25;14.82;;;7.35;;
68192;SDS011;55012;47.562;18.414;2023-02-01T06:27:50;20.40;;;9.23;;
68192;SDS011;55012;47.562;18.414;2023-02-01T06:30:16;18.05;;;8.18;;
68192;SDS011;55012;47.562;18.414;2023-02-01T06:32:42;19.08;;;7.50;;
68192;SDS011;55012;47.562;18.414;2023-02-01T06:35:08;18.30;;;7.57;;
68192;SDS011;55012;47.562;18.414;2023-02-01T06:37:42;17.33;;;7.93;;
68192;SDS011;55012;47.562;18.414;2023-02-01T06:40:08;17.42;;;7.85;;
68192;SDS011;55012;47.562;18.414;2023-02-01T06:42:34;14.65;;;7.43;;
68192;SDS011;55012;47.562;18.414;2023-02-01T06:44:59;12.43;;;6.20;;
68192;SDS011;55012;47.562;18.414;2023-02-01T06:47:24;11.40;;;5.10;;
68192;SDS011;55012;47.562;18.414;2023-02-01T06:49:50;10.50;;;4.85;;
68192;SDS011;55012;47.562;18.414;2023-02-01T06:52:15;10.48;;;4.95;;
68192;SDS011;55012;47.562;18.414;2023-02-01T06:54:41;8.23;;;4.53;;
68192;SDS011;55012;47.562;18.414;2023-02-01T06:57:06;9.13;;;5.10;;
68192;SDS011;55012;47.562;18.414;2023-02-01T06:59:32;12.05;;;5.10;;
68192;SDS011;55012;47.562;18.414;2023-02-01T07:01:57;9.82;;;4.80;;
68192;SDS011;55012;47.562;18.414;2023-02-01T07:04:23;10.85;;;4.90;;
68192;SDS011;55012;47.562;18.414;2023-02-01T07:06:48;9.57;;;4.80;;
68192;SDS011;55012;47.562;18.414;2023-02-01T07:09:14;9.27;;;4.80;;
68192;SDS011;55012;47.562;18.414;2023-02-01T07:11:39;8.93;;;5.03;;
68192;SDS011;55012;47.562;18.414;2023-02-01T07:14:08;8.25;;;4.75;;
68192;SDS011;55012;47.562;18.414;2023-02-01T07:16:34;9.10;;;4.75;;
68192;SDS011;55012;47.562;18.414;2023-02-01T07:18:59;13.38;;;6.78;;
68192;SDS011;55012;47.562;18.414;2023-02-01T07:21:25;14.88;;;6.70;;
68192;SDS011;55012;47.562;18.414;2023-02-01T07:23:52;19.80;;;8.85;;
68192;SDS011;55012;47.562;18.414;2023-02-01T07:26:18;14.05;;;7.18;;
68192;SDS011;55012;47.562;18.414;2023-02-01T07:28:44;16.20;;;7.43;;
68192;SDS011;55012;47.562;18.414;2023-02-01T07:31:12;14.73;;;7.28;;
68192;SDS011;55012;47.562;18.414;2023-02-01T07:33:44;9.73;;;5.00;;
68192;SDS011;55012;47.562;18.414;2023-02-01T07:36:13;6.85;;;3.83;;
68192;SDS011;55012;47.562;18.414;2023-02-01T07:38:40;6.88;;;3.90;;
68192;SDS011;55012;47.562;18.414;2023-02-01T07:41:06;7.82;;;4.07;;
68192;SDS011;55012;47.562;18.414;2023-02-01T07:43:33;7.57;;;3.50;;
68192;SDS011;55012;47.562;18.414;2023-02-01T07:45:59;6.18;;;3.40;;
68192;SDS011;55012;47.562;18.414;2023-02-01T07:48:25;7.70;;;3.85;;
68192;SDS011;55012;47.562;18.414;2023-02-01T07:51:13;7.63;;;3.33;;
68192;SDS011;55012;47.562;18.414;2023-02-01T07:53:40;6.40;;;3.60;;
68192;SDS011;55012;47.562;18.414;2023-02-01T07:56:25;6.78;;;3.15;;
68192;SDS011;55012;47.562;18.414;2023-02-01T07:58:51;8.85;;;4.70;;
68192;SDS011;55012;47.562;18.414;2023-02-01T08:01:20;9.75;;;5.05;;
68192;SDS011;55012;47.562;18.414;2023-02-01T08:03:55;9.38;;;4.53;;
68192;SDS011;55012;47.562;18.414;2023-02-01T08:06:24;9.88;;;5.07;;
68192;SDS011;55012;47.562;18.414;2023-02-01T08:08:50;8.18;;;4.47;;
68192;SDS011;55012;47.562;18.414;2023-02-01T08:11:17;9.35;;;4.63;;
68192;SDS011;55012;47.562;18.414;2023-02-01T08:13:43;13.27;;;5.53;;
68192;SDS011;55012;47.562;18.414;2023-02-01T08:16:10;9.02;;;5.03;;
68192;SDS011;55012;47.562;18.414;2023-02-01T08:18:39;7.30;;;4.00;;
68192;SDS011;55012;47.562;18.414;2023-02-01T08:21:06;9.35;;;4.30;;
68192;SDS011;55012;47.562;18.414;2023-02-01T08:23:33;7.00;;;3.78;;
68192;SDS011;55012;47.562;18.414;2023-02-01T08:28:43;6.82;;;3.38;;
68192;SDS011;55012;47.562;18.414;2023-02-01T08:31:12;5.65;;;3.33;;
68192;SDS011;55012;47.562;18.414;2023-02-01T08:33:42;6.65;;;3.47;;
68192;SDS011;55012;47.562;18.414;2023-02-01T08:36:12;6.50;;;3.80;;
68192;SDS011;55012;47.562;18.414;2023-02-01T08:38:38;7.65;;;3.97;;
68192;SDS011;55012;47.562;18.414;2023-02-01T08:41:07;7.90;;;3.97;;
68192;SDS011;55012;47.562;18.414;2023-02-01T08:43:37;8.10;;;4.28;;
68192;SDS011;55012;47.562;18.414;2023-02-01T08:46:03;6.65;;;3.63;;
68192;SDS011;55012;47.562;18.414;2023-02-01T08:48:29;8.48;;;4.32;;
68192;SDS011;55012;47.562;18.414;2023-02-01T08:50:55;9.77;;;5.13;;
68192;SDS011;55012;47.562;18.414;2023-02-01T08:53:21;9.35;;;5.00;;
68192;SDS011;55012;47.562;18.414;2023-02-01T08:55:47;10.27;;;5.43;;
68192;SDS011;55012;47.562;18.414;2023-02-01T08:58:13;9.00;;;4.50;;
68192;SDS011;55012;47.562;18.414;2023-02-01T09:00:42;10.85;;;4.80;;
68192;SDS011;55012;47.562;18.414;2023-02-01T09:03:10;11.65;;;5.30;;
68192;SDS011;55012;47.562;18.414;2023-02-01T09:05:36;15.02;;;5.85;;
68192;SDS011;55012;47.562;18.414;2023-02-01T09:08:02;11.32;;;6.00;;
68192;SDS011;55012;47.562;18.414;2023-02-01T09:10:27;10.10;;;5.22;;
68192;SDS011;55012;47.562;18.414;2023-02-01T09:12:53;10.15;;;5.90;;
68192;SDS011;55012;47.562;18.414;2023-02-01T09:15:18;11.23;;;5.50;;
68192;SDS011;55012;47.562;18.414;2023-02-01T09:17:44;11.00;;;5.90;;
68192;SDS011;55012;47.562;18.414;2023-02-01T09:20:10;10.32;;;5.00;;
68192;SDS011;55012;47.562;18.414;2023-02-01T09:22:36;9.60;;;5.05;;
68192;SDS011;55012;47.562;18.414;2023-02-01T09:25:02;11.57;;;5.78;;
68192;SDS011;55012;47.562;18.414;2023-02-01T09:27:27;9.27;;;4.75;;
68192;SDS011;55012;47.562;18.414;2023-02-01T09:29:53;9.52;;;4.80;;
68192;SDS011;55012;47.562;18.414;2023-02-01T09:32:21;8.65;;;4.70;;
68192;SDS011;55012;47.562;18.414;2023-02-01T09:34:52;10.38;;;5.00;;
68192;SDS011;55012;47.562;18.414;2023-02-01T09:37:18;13.20;;;5.25;;
68192;SDS011;55012;47.562;18.414;2023-02-01T09:39:44;9.27;;;4.93;;
68192;SDS011;55012;47.562;18.414;2023-02-01T09:45:30;7.85;;;4.50;;
68192;SDS011;55012;47.562;18.414;2023-02-01T09:48:11;8.50;;;4.53;;
68192;SDS011;55012;47.562;18.414;2023-02-01T09:50:41;9.20;;;5.05;;
68192;SDS011;55012;47.562;18.414;2023-02-01T09:53:28;9.15;;;4.95;;
68192;SDS011;55012;47.562;18.414;2023-02-01T09:56:18;11.50;;;5.47;;
68192;SDS011;55012;47.562;18.414;2023-02-01T09:58:47;11.25;;;5.47;;
68192;SDS011;55012;47.562;18.414;2023-02-01T10:01:23;12.18;;;6.63;;
68192;SDS011;55012;47.562;18.414;2023-02-01T10:03:56;18.35;;;8.70;;
68192;SDS011;55012;47.562;18.414;2023-02-01T10:14:36;18.05;;;8.32;;
68192;SDS011;55012;47.562;18.414;2023-02-01T10:19:52;14.30;;;7.45;;
68192;SDS011;55012;47.562;18.414;2023-02-01T10:22:41;16.95;;;7.82;;
68192;SDS011;55012;47.562;18.414;2023-02-01T10:28:03;17.90;;;9.57;;
68192;SDS011;55012;47.562;18.414;2023-02-01T10:30:38;20.67;;;10.23;;
68192;SDS011;55012;47.562;18.414;2023-02-01T10:33:18;24.63;;;11.65;;
68192;SDS011;55012;47.562;18.414;2023-02-01T10:35:51;25.20;;;11.95;;
68192;SDS011;55012;47.562;18.414;2023-02-01T10:38:27;29.38;;;13.40;;
68192;SDS011;55012;47.562;18.414;2023-02-01T10:40:56;18.02;;;9.05;;
68192;SDS011;55012;47.562;18.414;2023-02-01T10:43:26;32.78;;;14.15;;
68192;SDS011;55012;47.562;18.414;2023-02-01T10:45:52;31.85;;;14.90;;
68192;SDS011;55012;47.562;18.414;2023-02-01T10:48:17;25.17;;;11.82;;
68192;SDS011;55012;47.562;18.414;2023-02-01T10:50:51;21.92;;;10.32;;
68192;SDS011;55012;47.562;18.414;2023-02-01T10:53:28;18.13;;;9.55;;
68192;SDS011;55012;47.562;18.414;2023-02-01T10:56:05;24.55;;;10.38;;
68192;SDS011;55012;47.562;18.414;2023-02-01T10:58:32;16.95;;;9.50;;
68192;SDS011;55012;47.562;18.414;2023-02-01T11:01:02;14.98;;;8.60;;
68192;SDS011;55012;47.562;18.414;2023-02-01T11:03:42;17.20;;;9.10;;
68192;SDS011;55012;47.562;18.414;2023-02-01T11:06:30;17.92;;;9.75;;
68192;SDS011;55012;47.562;18.414;2023-02-01T11:11:30;19.58;;;9.60;;
68192;SDS011;55012;47.562;18.414;2023-02-01T11:13:57;22.10;;;9.82;;
68192;SDS011;55012;47.562;18.414;2023-02-01T11:16:35;17.77;;;8.68;;
68192;SDS011;55012;47.562;18.414;2023-02-01T11:19:02;18.27;;;9.07;;
68192;SDS011;55012;47.562;18.414;2023-02-01T11:21:28;18.02;;;9.02;;
68192;SDS011;55012;47.562;18.414;2023-02-01T11:23:54;13.90;;;6.70;;
68192;SDS011;55012;47.562;18.414;2023-02-01T11:26:26;13.38;;;6.60;;
68192;SDS011;55012;47.562;18.414;2023-02-01T11:29:00;12.18;;;5.72;;
68192;SDS011;55012;47.562;18.414;2023-02-01T11:31:28;7.68;;;4.25;;
68192;SDS011;55012;47.562;18.414;2023-02-01T11:33:56;5.07;;;3.40;;
68192;SDS011;55012;47.562;18.414;2023-02-01T11:36:26;7.05;;;3.13;;
68192;SDS011;55012;47.562;18.414;2023-02-01T11:41:34;7.32;;;4.10;;
68192;SDS011;55012;47.562;18.414;2023-02-01T11:50:00;6.88;;;3.10;;
68192;SDS011;55012;47.562;18.414;2023-02-01T11:58:40;7.88;;;3.60;;
68192;SDS011;55012;47.562;18.414;2023-02-01T12:09:31;14.75;;;5.00;;
68192;SDS011;55012;47.562;18.414;2023-02-01T12:32:12;15.43;;;6.43;;
68192;SDS011;55012;47.562;18.414;2023-02-01T12:37:51;13.75;;;6.32;;
68192;SDS011;55012;47.562;18.414;2023-02-01T12:43:17;13.55;;;6.07;;
68192;SDS011;55012;47.562;18.414;2023-02-01T12:46:09;21.15;;;8.75;;
68192;SDS011;55012;47.562;18.414;2023-02-01T12:51:28;13.98;;;6.20;;
68192;SDS011;55012;47.562;18.414;2023-02-01T12:56:28;13.40;;;6.03;;
68192;SDS011;55012;47.562;18.414;2023-02-01T12:59:04;13.45;;;6.82;;
68192;SDS011;55012;47.562;18.414;2023-02-01T13:01:56;9.90;;;5.82;;
68192;SDS011;55012;47.562;18.414;2023-02-01T13:12:22;11.98;;;5.63;;
68192;SDS011;55012;47.562;18.414;2023-02-01T13:14:57;10.25;;;5.53;;
68192;SDS011;55012;47.562;18.414;2023-02-01T13:17:30;9.70;;;4.80;;
68192;SDS011;55012;47.562;18.414;2023-02-01T13:20:19;9.68;;;4.50;;
68192;SDS011;55012;47.562;18.414;2023-02-01T13:25:50;8.50;;;3.00;;
68192;SDS011;55012;47.562;18.414;2023-02-01T13:28:23;5.90;;;3.17;;
68192;SDS011;55012;47.562;18.414;2023-02-01T13:39:45;5.45;;;2.38;;
68192;SDS011;55012;47.562;18.414;2023-02-01T13:43:02;4.20;;;1.88;;
68192;SDS011;55012;47.562;18.414;2023-02-01T13:47:50;6.65;;;2.42;;
68192;SDS011;55012;47.562;18.414;2023-02-01T13:50:21;5.53;;;2.63;;
68192;SDS011;55012;47.562;18.414;2023-02-01T13:53:00;3.78;;;2.47;;
68192;SDS011;55012;47.562;18.414;2023-02-01T13:55:34;6.85;;;2.50;;
68192;SDS011;55012;47.562;18.414;2023-02-01T14:09:09;4.15;;;2.38;;
68192;SDS011;55012;47.562;18.414;2023-02-01T14:11:54;4.40;;;2.20;;
68192;SDS011;55012;47.562;18.414;2023-02-01T14:19:21;5.97;;;2.78;;
68192;SDS011;55012;47.562;18.414;2023-02-01T14:21:55;4.00;;;2.50;;
68192;SDS011;55012;47.562;18.414;2023-02-01T14:24:26;6.50;;;3.10;;
68192;SDS011;55012;47.562;18.414;2023-02-01T14:26:54;5.22;;;3.33;;
68192;SDS011;55012;47.562;18.414;2023-02-01T14:29:26;5.32;;;2.92;;
68192;SDS011;55012;47.562;18.414;2023-02-01T14:42:21;5.18;;;1.85;;
68192;SDS011;55012;47.562;18.414;2023-02-01T14:58:05;8.02;;;3.33;;
68192;SDS011;55012;47.562;18.414;2023-02-01T15:00:46;6.20;;;3.03;;
68192;SDS011;55012;47.562;18.414;2023-02-01T15:09:30;18.85;;;5.72;;
68192;SDS011;55012;47.562;18.414;2023-02-01T15:15:12;10.20;;;3.97;;
68192;SDS011;55012;47.562;18.414;2023-02-01T15:17:49;26.25;;;8.35;;
68192;SDS011;55012;47.562;18.414;2023-02-01T15:20:26;27.83;;;8.23;;
68192;SDS011;55012;47.562;18.414;2023-02-01T15:25:22;13.68;;;4.85;;
68192;SDS011;55012;47.562;18.414;2023-02-01T15:27:51;6.97;;;3.88;;
68192;SDS011;55012;47.562;18.414;2023-02-01T15:30:18;5.38;;;2.92;;
68192;SDS011;55012;47.562;18.414;2023-02-01T15:32:48;6.32;;;2.97;;
68192;SDS011;55012;47.562;18.414;2023-02-01T15:43:29;5.22;;;2.60;;
68192;SDS011;55012;47.562;18.414;2023-02-01T15:46:01;5.82;;;2.60;;
68192;SDS011;55012;47.562;18.414;2023-02-01T15:48:32;11.50;;;5.15;;
68192;SDS011;55012;47.562;18.414;2023-02-01T15:51:03;12.27;;;5.15;;
68192;SDS011;55012;47.562;18.414;2023-02-01T15:53:29;13.82;;;6.13;;
68192;SDS011;55012;47.562;18.414;2023-02-01T15:55:57;12.00;;;4.28;;
68192;SDS011;55012;47.562;18.414;2023-02-01T15:58:26;10.07;;;4.78;;
68192;SDS011;55012;47.562;18.414;2023-02-01T16:00:56;13.68;;;5.82;;
68192;SDS011;55012;47.562;18.414;2023-02-01T16:06:03;20.35;;;8.98;;
68192;SDS011;55012;47.562;18.414;2023-02-01T16:08:31;12.02;;;6.03;;
68192;SDS011;55012;47.562;18.414;2023-02-01T16:11:19;12.63;;;6.18;;
68192;SDS011;55012;47.562;18.414;2023-02-01T16:13:48;8.82;;;4.25;;
68192;SDS011;55012;47.562;18.414;2023-02-01T16:16:14;10.70;;;4.88;;
68192;SDS011;55012;47.562;18.414;2023-02-01T16:18:40;8.27;;;4.38;;
68192;SDS011;55012;47.562;18.414;2023-02-01T16:21:06;8.95;;;3.58;;
68192;SDS011;55012;47.562;18.414;2023-02-01T16:23:33;7.90;;;3.58;;
68192;SDS011;55012;47.562;18.414;2023-02-01T16:26:02;6.50;;;3.10;;
68192;SDS011;55012;47.562;18.414;2023-02-01T16:28:28;7.53;;;3.20;;
68192;SDS011;55012;47.562;18.414;2023-02-01T16:30:54;6.88;;;2.75;;
68192;SDS011;55012;47.562;18.414;2023-02-01T16:33:20;4.22;;;2.30;;
68192;SDS011;55012;47.562;18.414;2023-02-01T16:35:50;6.40;;;2.78;;
68192;SDS011;55012;47.562;18.414;2023-02-01T16:38:17;5.05;;;2.83;;
68192;SDS011;55012;47.562;18.414;2023-02-01T16:40:46;8.10;;;2.90;;
68192;SDS011;55012;47.562;18.414;2023-02-01T16:43:13;4.63;;;2.60;;
68192;SDS011;55012;47.562;18.414;2023-02-01T16:45:43;3.85;;;2.30;;
68192;SDS011;55012;47.562;18.414;2023-02-01T16:48:18;3.70;;;2.03;;
68192;SDS011;55012;47.562;18.414;2023-02-01T16:50:47;5.28;;;1.98;;
68192;SDS011;55012;47.562;18.414;2023-02-01T16:53:17;4.70;;;1.88;;
68192;SDS011;55012;47.562;18.414;2023-02-01T16:55:43;5.97;;;2.22;;
68192;SDS011;55012;47.562;18.414;2023-02-01T16:58:09;3.45;;;2.20;;
68192;SDS011;55012;47.562;18.414;2023-02-01T17:00:35;5.22;;;1.95;;
68192;SDS011;55012;47.562;18.414;2023-02-01T17:03:02;3.08;;;1.83;;
68192;SDS011;55012;47.562;18.414;2023-02-01T17:05:31;4.10;;;2.05;;
68192;SDS011;55012;47.562;18.414;2023-02-01T17:07:58;3.75;;;2.00;;
68192;SDS011;55012;47.562;18.414;2023-02-01T17:10:30;3.30;;;2.03;;
68192;SDS011;55012;47.562;18.414;2023-02-01T17:12:56;4.40;;;1.98;;
68192;SDS011;55012;47.562;18.414;2023-02-01T17:15:24;3.33;;;1.83;;
68192;SDS011;55012;47.562;18.414;2023-02-01T17:17:53;3.13;;;1.90;;
68192;SDS011;55012;47.562;18.414;2023-02-01T17:20:20;3.35;;;1.88;;
68192;SDS011;55012;47.562;18.414;2023-02-01T17:22:48;3.00;;;1.60;;
68192;SDS011;55012;47.562;18.414;2023-02-01T17:25:16;5.00;;;2.10;;
68192;SDS011;55012;47.562;18.414;2023-02-01T17:27:42;5.60;;;2.15;;
68192;SDS011;55012;47.562;18.414;2023-02-01T17:30:09;6.72;;;3.42;;
68192;SDS011;55012;47.562;18.414;2023-02-01T17:32:36;7.53;;;3.65;;
68192;SDS011;55012;47.562;18.414;2023-02-01T17:35:01;5.30;;;2.40;;
68192;SDS011;55012;47.562;18.414;2023-02-01T17:37:28;5.53;;;2.63;;
68192;SDS011;55012;47.562;18.414;2023-02-01T17:40:00;5.55;;;2.80;;
68192;SDS011;55012;47.562;18.414;2023-02-01T17:42:27;4.22;;;2.03;;
68192;SDS011;55012;47.562;18.414;2023-02-01T17:44:55;4.50;;;2.55;;
68192;SDS011;55012;47.562;18.414;2023-02-01T17:47:23;8.50;;;2.13;;
68192;SDS011;55012;47.562;18.414;2023-02-01T17:49:49;4.00;;;2.17;;
68192;SDS011;55012;47.562;18.414;2023-02-01T17:52:20;3.72;;;2.13;;